Time;durP1;ratioP1;P1;durP2;ratioP2;P2;SDS_P1;SDS_P2;PMS_P1;PMS_P2;Temp;Humidity;BMP_temperature;BMP_pressure;BME280_temperature;BME280_humidity;BME280_pressure;Samples;Min_cycle;Max_cycle;Signal;HPM_P1;HPM_P2
2023/10/24 00:00:52;;;;;;;3.53;1.00;;;22.40;76.70;;;;;;5033824;28;20476;-88
2023/10/24 00:03:19;;;;;;;1.93;1.00;;;22.40;76.80;;;;;;5034050;28;20443;-88
2023/10/24 00:05:48;;;;;;;1.60;1.30;;;22.40;76.60;;;;;;5033783;28;20450;-86
2023/10/24 00:08:14;;;;;;;1.37;1.10;;;22.30;76.60;;;;;;5033974;28;20465;-89
2023/10/24 00:10:41;;;;;;;2.30;1.00;;;22.30;76.50;;;;;;5033822;28;20445;-86
2023/10/24 00:13:09;;;;;;;1.23;0.80;;;22.40;76.60;;;;;;5033806;28;20446;-86
2023/10/24 00:15:36;;;;;;;1.50;1.10;;;22.40;76.60;;;;;;5033571;28;20482;-89
2023/10/24 00:18:03;;;;;;;1.30;0.80;;;22.40;76.60;;;;;;5033880;28;20442;-86
2023/10/24 00:20:30;;;;;;;1.20;0.90;;;22.40;77.00;;;;;;5033972;28;20521;-87
2023/10/24 00:22:57;;;;;;;1.10;0.90;;;22.30;76.70;;;;;;5033552;28;20445;-89
2023/10/24 00:25:23;;;;;;;1.40;0.93;;;22.40;76.60;;;;;;5033478;28;20470;-90
2023/10/24 00:27:50;;;;;;;2.93;1.20;;;22.30;76.40;;;;;;5033834;28;20525;-86
2023/10/24 00:30:18;;;;;;;2.30;0.93;;;22.30;76.70;;;;;;5033454;28;20460;-86
2023/10/24 00:32:49;;;;;;;1.33;1.20;;;22.30;76.80;;;;;;5033715;28;20448;-87
2023/10/24 00:35:16;;;;;;;1.00;0.70;;;22.30;77.10;;;;;;5033666;28;20486;-90
2023/10/24 00:37:43;;;;;;;3.00;0.90;;;22.30;76.50;;;;;;5033430;28;20918;-87
2023/10/24 00:40:11;;;;;;;1.10;0.70;;;22.30;76.60;;;;;;5033533;28;20956;-88
2023/10/24 00:42:38;;;;;;;3.10;1.13;;;22.30;76.90;;;;;;5033624;28;20440;-88
2023/10/24 00:45:06;;;;;;;1.20;1.00;;;22.30;76.60;;;;;;5033421;28;20911;-88
2023/10/24 00:47:34;;;;;;;1.20;1.03;;;22.30;76.80;;;;;;5033474;28;20442;-87
2023/10/24 00:50:02;;;;;;;1.40;1.00;;;22.30;77.10;;;;;;5033492;28;20438;-89
2023/10/24 00:52:29;;;;;;;1.10;0.93;;;22.30;76.70;;;;;;5033279;28;20446;-86
2023/10/24 00:54:55;;;;;;;1.20;1.00;;;22.30;76.70;;;;;;5033414;28;20508;-88
2023/10/24 00:57:23;;;;;;;1.60;1.10;;;22.30;76.60;;;;;;5033405;28;20790;-88
2023/10/24 00:59:51;;;;;;;1.23;0.90;;;22.30;76.60;;;;;;5033322;28;20445;-86
2023/10/24 01:02:17;;;;;;;1.93;0.83;;;22.30;76.70;;;;;;5035090;28;20446;-89
2023/10/24 01:04:46;;;;;;;1.20;1.00;;;22.50;76.90;;;;;;5037411;28;20802;-86
2023/10/24 01:07:13;;;;;;;1.20;0.83;;;22.30;76.80;;;;;;5037224;28;20445;-89
2023/10/24 01:09:40;;;;;;;1.10;0.80;;;22.30;77.30;;;;;;5037418;28;20832;-91
2023/10/24 01:12:08;;;;;;;2.13;1.00;;;22.30;76.90;;;;;;5037411;28;20442;-86
2023/10/24 01:14:37;;;;;;;1.20;1.00;;;22.30;76.90;;;;;;5037313;28;20560;-89
2023/10/24 01:17:10;;;;;;;1.07;0.77;;;22.30;77.20;;;;;;5037084;28;20867;-85
2023/10/24 01:19:37;;;;;;;1.20;1.10;;;22.30;76.70;;;;;;5037083;28;20537;-90
2023/10/24 01:22:05;;;;;;;1.50;0.90;;;22.30;76.90;;;;;;5037047;28;20442;-86
2023/10/24 01:24:33;;;;;;;1.73;0.93;;;22.30;76.70;;;;;;5036733;28;20469;-87
2023/10/24 01:27:00;;;;;;;1.20;0.83;;;22.30;77.10;;;;;;5037104;28;20474;-85
2023/10/24 01:29:27;;;;;;;1.17;1.00;;;22.30;77.00;;;;;;5036889;28;20533;-86
2023/10/24 01:31:53;;;;;;;1.23;0.90;;;22.30;76.80;;;;;;5036941;28;20442;-86
2023/10/24 01:34:20;;;;;;;3.27;0.97;;;22.30;76.60;;;;;;5036703;28;20458;-88
2023/10/24 01:36:47;;;;;;;1.10;1.00;;;22.30;76.70;;;;;;5036883;28;20578;-90
2023/10/24 01:39:15;;;;;;;1.10;0.83;;;22.30;76.90;;;;;;5036557;28;20462;-85
2023/10/24 01:41:42;;;;;;;1.40;1.10;;;22.30;76.70;;;;;;5036652;28;20513;-86
2023/10/24 01:44:09;;;;;;;1.40;0.93;;;22.30;77.10;;;;;;5036574;28;20438;-88
2023/10/24 01:46:36;;;;;;;1.20;0.90;;;22.40;77.00;;;;;;5036446;28;20448;-89
2023/10/24 01:49:03;;;;;;;1.00;0.80;;;22.30;76.90;;;;;;5036625;28;20438;-88
2023/10/24 01:51:30;;;;;;;1.10;0.87;;;22.30;76.80;;;;;;5036414;28;21023;-87
2023/10/24 01:53:56;;;;;;;1.00;0.80;;;22.30;76.90;;;;;;5036381;28;20443;-86
2023/10/24 01:56:24;;;;;;;1.20;1.10;;;22.30;76.90;;;;;;5036483;28;20493;-90
2023/10/24 01:58:51;;;;;;;1.07;0.80;;;22.30;76.70;;;;;;5036286;28;20477;-89
2023/10/24 02:01:18;;;;;;;1.83;0.80;;;22.30;76.80;;;;;;5036212;28;20533;-86
2023/10/24 02:03:45;;;;;;;1.20;1.00;;;22.30;76.90;;;;;;5036166;28;20809;-88
2023/10/24 02:06:11;;;;;;;1.07;0.90;;;22.30;77.10;;;;;;5036116;28;20948;-90
2023/10/24 02:08:38;;;;;;;1.83;1.00;;;22.30;76.70;;;;;;5035863;28;20560;-86
2023/10/24 02:11:05;;;;;;;1.20;1.00;;;22.30;77.00;;;;;;5036017;28;20537;-85
2023/10/24 02:13:33;;;;;;;1.17;0.90;;;22.30;77.30;;;;;;5034576;28;20445;-90
2023/10/24 02:16:00;;;;;;;1.30;1.20;;;22.30;76.80;;;;;;5036168;28;20829;-88
2023/10/24 02:18:27;;;;;;;1.63;0.90;;;22.30;76.80;;;;;;5036113;28;20526;-87
2023/10/24 02:20:53;;;;;;;1.07;0.80;;;22.30;76.90;;;;;;5036261;28;20997;-89
2023/10/24 02:23:20;;;;;;;1.27;0.90;;;22.30;77.10;;;;;;5036042;28;20521;-87
2023/10/24 02:25:47;;;;;;;1.10;0.80;;;22.30;77.10;;;;;;5035540;28;20473;-89
2023/10/24 02:28:14;;;;;;;1.00;0.70;;;22.30;77.10;;;;;;5035699;28;20952;-87
2023/10/24 02:30:42;;;;;;;1.20;0.90;;;22.30;77.10;;;;;;5035623;28;20947;-89
2023/10/24 02:33:09;;;;;;;1.73;1.07;;;22.30;77.00;;;;;;5035665;28;20783;-86
2023/10/24 02:35:35;;;;;;;1.40;0.90;;;22.30;76.90;;;;;;5035949;28;20490;-86
2023/10/24 02:38:02;;;;;;;1.10;0.80;;;22.30;77.10;;;;;;5035447;28;20457;-87
2023/10/24 02:40:29;;;;;;;1.30;1.20;;;22.30;77.30;;;;;;5035571;28;20453;-86
2023/10/24 02:42:56;;;;;;;1.23;1.00;;;22.30;77.30;;;;;;5035752;28;20438;-88
2023/10/24 02:45:23;;;;;;;1.33;0.97;;;22.30;77.10;;;;;;5035453;28;20444;-86
2023/10/24 02:47:51;;;;;;;1.00;0.70;;;22.30;77.00;;;;;;5035530;28;20469;-85
2023/10/24 02:50:18;;;;;;;2.73;1.00;;;22.30;77.20;;;;;;5035454;28;20476;-88
2023/10/24 02:52:45;;;;;;;1.33;0.90;;;22.30;77.10;;;;;;5035525;28;20464;-89
2023/10/24 02:55:12;;;;;;;1.40;0.80;;;22.30;77.10;;;;;;5035108;28;20481;-89
2023/10/24 02:57:39;;;;;;;1.50;1.00;;;22.20;77.20;;;;;;5035245;28;20444;-88
2023/10/24 03:00:07;;;;;;;1.20;0.90;;;22.30;77.30;;;;;;5034751;28;20445;-87
2023/10/24 03:02:34;;;;;;;1.17;0.93;;;22.20;77.10;;;;;;5034958;28;20493;-88
2023/10/24 03:05:02;;;;;;;1.20;1.00;;;22.30;77.30;;;;;;5035303;28;20453;-89
2023/10/24 03:07:29;;;;;;;1.13;0.87;;;22.30;77.10;;;;;;5034778;28;20435;-87
2023/10/24 03:09:56;;;;;;;1.20;0.80;;;22.30;77.30;;;;;;5035101;28;20449;-87
2023/10/24 03:12:22;;;;;;;1.10;0.83;;;22.30;77.30;;;;;;5034844;28;20434;-85
2023/10/24 03:14:49;;;;;;;2.07;0.90;;;22.30;77.30;;;;;;5034557;28;20453;-86
2023/10/24 03:17:16;;;;;;;1.10;0.90;;;22.20;77.30;;;;;;5034641;28;20446;-89
2023/10/24 03:19:42;;;;;;;2.07;0.80;;;22.20;76.80;;;;;;5034710;28;20446;-86
2023/10/24 03:22:11;;;;;;;1.20;0.90;;;22.30;77.10;;;;;;5034577;28;20456;-86
2023/10/24 03:24:37;;;;;;;1.10;0.77;;;22.30;77.40;;;;;;5034126;28;20845;-88
2023/10/24 03:27:05;;;;;;;1.20;0.90;;;22.40;77.40;;;;;;5034713;28;20442;-88
2023/10/24 03:29:35;;;;;;;1.97;0.90;;;22.30;77.20;;;;;;5034092;28;20442;-86
2023/10/24 03:32:02;;;;;;;1.23;1.00;;;22.30;77.40;;;;;;5034333;28;20902;-85
2023/10/24 03:34:29;;;;;;;1.07;0.90;;;22.20;77.10;;;;;;5034639;28;20446;-86
2023/10/24 03:36:56;;;;;;;1.00;0.80;;;22.30;77.20;;;;;;5034243;28;21008;-87
2023/10/24 03:39:25;;;;;;;1.13;0.90;;;22.30;77.10;;;;;;5034165;28;20470;-86
2023/10/24 03:41:52;;;;;;;1.00;0.80;;;22.20;77.50;;;;;;5034336;28;20438;-86
2023/10/24 03:44:18;;;;;;;1.47;1.00;;;22.20;77.00;;;;;;5034202;28;20441;-88
2023/10/24 03:46:45;;;;;;;1.03;0.83;;;22.20;76.90;;;;;;5034123;28;20447;-86
2023/10/24 03:49:12;;;;;;;1.00;0.80;;;22.20;77.00;;;;;;5034022;28;20918;-88
2023/10/24 03:51:39;;;;;;;1.03;0.77;;;22.30;77.40;;;;;;5034306;28;20496;-86
2023/10/24 03:54:06;;;;;;;1.23;0.77;;;22.20;77.00;;;;;;5033817;28;20793;-86
2023/10/24 03:56:35;;;;;;;1.10;0.80;;;22.20;76.80;;;;;;5034070;28;20492;-86
2023/10/24 03:59:02;;;;;;;1.10;0.80;;;22.20;77.10;;;;;;5033840;28;20812;-87
2023/10/24 04:01:29;;;;;;;1.00;0.70;;;22.20;77.20;;;;;;5033740;28;20465;-86
2023/10/24 04:03:56;;;;;;;1.00;0.80;;;22.30;77.10;;;;;;5033934;28;20438;-90
2023/10/24 04:06:22;;;;;;;2.13;0.90;;;22.30;77.10;;;;;;5024259;28;20446;-86
2023/10/24 04:08:49;;;;;;;1.10;0.80;;;22.20;76.90;;;;;;5001219;28;20847;-86
2023/10/24 04:11:17;;;;;;;1.00;0.73;;;22.20;77.60;;;;;;5002262;28;20454;-87
2023/10/24 04:13:46;;;;;;;1.00;0.70;;;22.20;76.80;;;;;;5013948;28;20439;-86
2023/10/24 04:16:13;;;;;;;1.63;0.90;;;22.20;76.70;;;;;;5013753;28;20486;-87
2023/10/24 04:18:40;;;;;;;1.00;0.80;;;22.30;77.50;;;;;;5013808;28;20442;-89
2023/10/24 04:21:07;;;;;;;1.30;0.90;;;22.20;77.10;;;;;;5013893;28;20934;-92
2023/10/24 04:23:35;;;;;;;2.30;0.93;;;22.30;77.00;;;;;;5013364;28;20443;-88
2023/10/24 04:26:05;;;;;;;1.03;0.73;;;22.20;77.00;;;;;;5014189;28;20446;-90
2023/10/24 04:28:32;;;;;;;1.17;0.80;;;22.20;77.30;;;;;;5013963;28;20497;-87
2023/10/24 04:31:00;;;;;;;1.20;0.87;;;22.20;77.60;;;;;;5014120;28;20463;-85
2023/10/24 04:33:27;;;;;;;1.20;1.00;;;22.20;77.30;;;;;;5014194;28;20461;-91
2023/10/24 04:35:54;;;;;;;1.10;0.90;;;22.20;77.60;;;;;;5013521;28;20485;-89
2023/10/24 04:38:21;;;;;;;1.60;0.90;;;22.20;77.50;;;;;;5013299;28;20471;-91
2023/10/24 04:40:51;;;;;;;1.10;0.87;;;22.20;77.40;;;;;;5013599;28;20446;-93
2023/10/24 04:43:17;;;;;;;1.80;1.00;;;22.20;77.50;;;;;;5013922;28;20447;-93
2023/10/24 04:45:44;;;;;;;3.53;1.00;;;22.20;77.60;;;;;;5014096;28;20447;-89
2023/10/24 04:48:12;;;;;;;1.03;0.80;;;22.20;77.40;;;;;;5013318;28;20435;-88
2023/10/24 04:50:40;;;;;;;1.00;0.70;;;22.20;77.00;;;;;;5012938;28;20788;-85
2023/10/24 04:53:07;;;;;;;3.90;0.90;;;22.20;76.80;;;;;;5013042;28;20542;-84
2023/10/24 04:55:35;;;;;;;1.10;0.80;;;22.20;77.00;;;;;;5013015;28;20493;-84
2023/10/24 04:58:02;;;;;;;1.37;1.10;;;22.20;77.00;;;;;;5013103;28;20447;-86
2023/10/24 05:00:29;;;;;;;1.30;0.90;;;22.20;77.00;;;;;;5013183;28;20443;-86
2023/10/24 05:02:56;;;;;;;1.10;0.80;;;22.20;77.10;;;;;;5012868;28;20446;-84
2023/10/24 05:05:24;;;;;;;1.57;1.07;;;22.20;77.20;;;;;;5013066;28;20465;-89
2023/10/24 05:07:51;;;;;;;1.43;0.90;;;22.20;77.20;;;;;;5012914;28;20463;-84
2023/10/24 05:10:17;;;;;;;2.30;0.90;;;22.20;77.20;;;;;;5012723;28;20443;-85
2023/10/24 05:12:44;;;;;;;2.80;0.90;;;22.20;77.60;;;;;;5012668;28;20451;-85
2023/10/24 05:15:11;;;;;;;1.70;1.30;;;22.20;77.20;;;;;;5012665;28;20443;-86
2023/10/24 05:17:38;;;;;;;1.93;1.00;;;22.20;77.30;;;;;;5012686;28;20495;-89
2023/10/24 05:20:07;;;;;;;1.67;0.80;;;22.20;77.30;;;;;;5013581;28;20447;-84
2023/10/24 05:22:35;;;;;;;5.23;1.13;;;22.20;77.40;;;;;;5013417;28;20990;-85
2023/10/24 05:25:02;;;;;;;1.13;0.80;;;22.20;77.50;;;;;;5013562;28;20467;-92
2023/10/24 05:27:31;;;;;;;2.63;1.40;;;22.20;77.60;;;;;;5013665;28;20447;-88
2023/10/24 05:29:58;;;;;;;9.40;1.57;;;22.20;77.80;;;;;;5013430;28;20486;-88
2023/10/24 05:32:25;;;;;;;2.67;1.60;;;22.20;77.70;;;;;;5013694;28;20442;-89
2023/10/24 05:34:52;;;;;;;2.03;1.40;;;22.20;78.20;;;;;;5013457;28;20443;-89
2023/10/24 05:37:18;;;;;;;3.30;1.53;;;22.20;77.80;;;;;;5013434;28;20490;-88
2023/10/24 05:39:47;;;;;;;2.37;1.47;;;22.20;77.90;;;;;;5013506;28;20440;-88
2023/10/24 05:42:13;;;;;;;2.00;1.30;;;22.20;77.90;;;;;;5014211;28;20839;-86
2023/10/24 05:44:40;;;;;;;4.27;1.57;;;22.20;77.80;;;;;;5013510;28;20960;-92
2023/10/24 05:47:07;;;;;;;2.80;1.70;;;22.20;77.90;;;;;;5013764;28;20454;-86
2023/10/24 05:49:42;;;;;;;4.40;1.83;;;22.20;77.80;;;;;;5012589;28;20458;-92
2023/10/24 05:52:08;;;;;;;4.10;2.30;;;22.20;78.10;;;;;;5014555;28;20450;-89
2023/10/24 05:54:36;;;;;;;3.53;1.50;;;22.30;78.00;;;;;;5015823;28;20446;-87
2023/10/24 05:57:04;;;;;;;1.70;1.30;;;22.20;77.90;;;;;;5018390;28;20494;-90
2023/10/24 05:59:33;;;;;;;3.23;1.67;;;22.20;77.60;;;;;;5009803;28;20447;-86
2023/10/24 06:02:00;;;;;;;2.27;1.40;;;22.20;77.60;;;;;;5016242;28;20453;-89
2023/10/24 06:04:27;;;;;;;1.60;1.27;;;22.20;77.90;;;;;;5016874;28;20443;-86
2023/10/24 06:06:55;;;;;;;1.70;1.40;;;22.20;77.70;;;;;;5018845;28;20557;-90
2023/10/24 06:09:22;;;;;;;1.93;1.30;;;22.10;77.50;;;;;;5017286;28;20495;-88
2023/10/24 06:11:48;;;;;;;1.67;1.40;;;22.20;77.60;;;;;;5017648;28;20863;-87
2023/10/24 06:14:17;;;;;;;1.40;1.30;;;22.20;78.50;;;;;;5017329;28;20569;-86
2023/10/24 06:16:43;;;;;;;1.50;1.20;;;22.20;77.50;;;;;;5016249;28;20518;-86
2023/10/24 06:19:10;;;;;;;3.30;1.37;;;22.20;77.50;;;;;;5016138;28;20435;-85
2023/10/24 06:21:37;;;;;;;1.90;1.47;;;22.20;77.50;;;;;;5016277;28;20457;-93
2023/10/24 06:24:04;;;;;;;2.43;1.23;;;22.10;77.50;;;;;;5016093;28;20612;-86
2023/10/24 06:26:31;;;;;;;2.90;1.43;;;22.10;77.40;;;;;;5015877;28;20439;-89
2023/10/24 06:28:58;;;;;;;2.70;1.53;;;22.20;77.60;;;;;;5015987;28;20459;-87
2023/10/24 06:31:28;;;;;;;1.70;1.17;;;22.10;77.40;;;;;;5015966;28;20436;-86
2023/10/24 06:33:55;;;;;;;1.80;1.40;;;22.10;77.60;;;;;;5016061;28;20478;-91
2023/10/24 06:36:22;;;;;;;2.03;1.10;;;22.20;77.80;;;;;;5015935;28;20483;-88
2023/10/24 06:38:48;;;;;;;1.43;1.07;;;22.20;77.60;;;;;;5015840;28;20557;-89
2023/10/24 06:41:16;;;;;;;1.73;1.50;;;22.20;77.20;;;;;;5015756;28;20435;-89
2023/10/24 06:43:43;;;;;;;1.27;1.17;;;22.10;77.20;;;;;;5015803;28;20832;-88
2023/10/24 06:46:10;;;;;;;5.33;1.67;;;22.10;77.30;;;;;;5015597;28;20926;-89
2023/10/24 06:48:38;;;;;;;2.73;1.27;;;22.10;77.30;;;;;;5015638;28;20451;-87
2023/10/24 06:51:05;;;;;;;2.03;1.40;;;22.10;77.40;;;;;;5015634;28;20466;-90
2023/10/24 06:53:32;;;;;;;2.53;1.30;;;22.10;77.60;;;;;;5015621;28;20450;-92
2023/10/24 06:56:00;;;;;;;1.50;1.30;;;22.20;77.60;;;;;;5015239;28;20439;-87
2023/10/24 06:58:27;;;;;;;2.20;1.33;;;22.10;77.40;;;;;;5015562;28;20442;-87
2023/10/24 07:00:54;;;;;;;3.50;1.20;;;22.10;78.00;;;;;;5014931;28;20435;-87
2023/10/24 07:03:21;;;;;;;2.03;1.47;;;22.10;77.10;;;;;;5016890;28;20538;-92
2023/10/24 07:05:53;;;;;;;2.10;1.30;;;22.10;77.20;;;;;;5015390;28;20435;-88
2023/10/24 07:08:20;;;;;;;3.83;1.10;;;22.20;77.60;;;;;;5014521;28;20465;-89
2023/10/24 07:10:47;;;;;;;1.30;1.20;;;22.10;77.30;;;;;;5014937;28;20443;-89
2023/10/24 07:13:14;;;;;;;1.33;1.10;;;22.10;77.60;;;;;;5014684;28;20435;-87
2023/10/24 07:15:41;;;;;;;2.17;1.30;;;22.10;77.00;;;;;;5014665;28;20450;-87
2023/10/24 07:18:08;;;;;;;2.20;1.27;;;22.10;76.90;;;;;;5015140;28;20514;-88
2023/10/24 07:20:36;;;;;;;4.57;1.70;;;22.10;76.80;;;;;;5014711;28;20447;-88
2023/10/24 07:23:05;;;;;;;2.27;1.37;;;22.10;76.70;;;;;;5014824;28;20578;-88
2023/10/24 07:25:32;;;;;;;2.23;1.10;;;22.10;76.80;;;;;;5014555;28;21076;-87
2023/10/24 07:27:59;;;;;;;2.13;1.30;;;22.10;76.70;;;;;;5014830;28;20443;-87
2023/10/24 07:30:26;;;;;;;1.60;1.20;;;22.00;76.60;;;;;;5028399;28;21032;-87
2023/10/24 07:32:54;;;;;;;3.63;1.60;;;22.10;76.70;;;;;;5034033;28;20529;-86
2023/10/24 07:35:21;;;;;;;1.60;1.40;;;22.10;76.70;;;;;;5034106;28;20778;-89
2023/10/24 07:37:48;;;;;;;1.20;1.00;;;22.00;76.60;;;;;;5034228;28;20493;-87
2023/10/24 07:40:16;;;;;;;2.17;1.23;;;22.10;76.70;;;;;;5034510;28;20625;-89
2023/10/24 07:42:44;;;;;;;1.83;1.00;;;22.10;76.70;;;;;;5034141;28;20445;-89
2023/10/24 07:45:12;;;;;;;2.43;1.40;;;22.10;77.10;;;;;;5035639;28;20434;-85
2023/10/24 07:47:39;;;;;;;1.67;1.00;;;22.10;77.10;;;;;;5034572;28;20453;-94
2023/10/24 07:50:08;;;;;;;1.30;1.10;;;22.10;77.10;;;;;;5034248;28;20541;-85
2023/10/24 07:52:35;;;;;;;2.03;1.00;;;22.10;77.10;;;;;;5034510;28;20449;-90
2023/10/24 07:55:01;;;;;;;1.20;1.07;;;22.10;77.20;;;;;;5034087;28;20446;-85
2023/10/24 07:57:30;;;;;;;1.30;1.00;;;22.10;77.30;;;;;;5034354;28;20497;-93
2023/10/24 07:59:57;;;;;;;2.80;1.40;;;22.10;77.30;;;;;;5033840;28;20490;-93
2023/10/24 08:02:24;;;;;;;1.77;0.80;;;22.10;77.20;;;;;;5034103;28;20438;-85
2023/10/24 08:04:51;;;;;;;1.40;0.90;;;22.10;77.70;;;;;;5033546;28;20956;-90
2023/10/24 08:07:18;;;;;;;1.30;1.10;;;22.10;77.30;;;;;;5034218;28;20469;-94
2023/10/24 08:09:44;;;;;;;1.50;1.03;;;22.20;77.60;;;;;;5034283;28;20443;-93
2023/10/24 08:12:11;;;;;;;2.27;1.00;;;22.10;77.10;;;;;;5033083;28;20438;-93
2023/10/24 08:14:39;;;;;;;1.10;0.90;;;22.10;77.70;;;;;;5034347;28;20485;-93
2023/10/24 08:17:06;;;;;;;1.23;1.07;;;22.10;77.40;;;;;;5034034;28;20482;-93
2023/10/24 08:19:33;;;;;;;1.80;0.93;;;22.10;77.10;;;;;;5034132;28;20448;-92
2023/10/24 08:22:00;;;;;;;1.30;1.00;;;22.10;78.00;;;;;;5034161;28;20441;-86
2023/10/24 08:24:27;;;;;;;1.20;1.00;;;22.10;77.50;;;;;;5034387;28;20474;-86
2023/10/24 08:26:53;;;;;;;1.53;1.10;;;22.10;77.30;;;;;;5034259;28;20438;-92
2023/10/24 08:29:20;;;;;;;1.37;1.13;;;22.10;77.20;;;;;;5034201;28;20430;-92
2023/10/24 08:31:48;;;;;;;1.30;1.10;;;22.10;77.50;;;;;;5034115;28;20441;-94
2023/10/24 08:34:15;;;;;;;1.30;1.20;;;22.10;77.40;;;;;;5033756;28;20866;-92
2023/10/24 08:36:42;;;;;;;1.23;1.10;;;22.10;77.10;;;;;;5034296;28;20485;-93
2023/10/24 08:39:09;;;;;;;1.80;1.10;;;22.10;76.90;;;;;;5033913;28;20458;-85
2023/10/24 08:41:36;;;;;;;4.37;1.00;;;22.10;77.10;;;;;;5034230;28;20442;-93
2023/10/24 08:44:04;;;;;;;1.43;1.13;;;22.10;77.30;;;;;;5033955;28;20430;-89
2023/10/24 08:46:32;;;;;;;1.00;0.77;;;22.10;77.50;;;;;;5002509;28;20448;-85
2023/10/24 08:49:02;;;;;;;1.83;1.10;;;22.10;77.10;;;;;;4994480;28;20962;-92
2023/10/24 08:51:29;;;;;;;1.40;1.03;;;22.10;77.10;;;;;;4994342;28;20447;-85
2023/10/24 08:53:56;;;;;;;1.17;0.97;;;22.10;77.10;;;;;;4995059;28;20446;-92
2023/10/24 08:56:23;;;;;;;2.57;1.00;;;22.10;77.10;;;;;;4994613;28;20781;-92
2023/10/24 08:58:51;;;;;;;1.80;1.00;;;22.10;77.90;;;;;;4994080;28;20499;-91
2023/10/24 09:01:17;;;;;;;5.40;1.10;;;22.10;78.00;;;;;;4994019;28;20450;-91
2023/10/24 09:03:45;;;;;;;1.50;1.00;;;22.10;77.10;;;;;;4994533;28;20440;-92
2023/10/24 09:06:13;;;;;;;1.33;1.20;;;22.10;77.20;;;;;;4994084;28;20444;-93
2023/10/24 09:08:40;;;;;;;1.17;0.97;;;22.10;77.50;;;;;;4994175;28;20551;-94
2023/10/24 09:11:07;;;;;;;1.20;0.93;;;22.10;77.10;;;;;;4994151;28;20440;-91
2023/10/24 09:13:34;;;;;;;1.20;1.03;;;22.10;77.40;;;;;;4993888;28;20939;-85
2023/10/24 09:16:09;;;;;;;2.70;1.13;;;22.10;77.40;;;;;;4993995;28;20806;-92
2023/10/24 09:18:37;;;;;;;1.50;0.80;;;22.10;77.90;;;;;;4999506;28;20982;-86
2023/10/24 09:21:06;;;;;;;2.17;1.00;;;22.10;77.30;;;;;;5013032;28;20443;-86
2023/10/24 09:23:38;;;;;;;1.30;0.90;;;22.10;76.40;;;;;;5014690;28;20530;-87
